createdAt,value
2022-11-17T00:01:39.208Z,37
2022-11-17T00:03:39.319Z,38
2022-11-17T00:05:39.431Z,40
2022-11-17T00:07:39.547Z,38
2022-11-17T00:09:39.623Z,37
2022-11-17T00:11:39.749Z,38
2022-11-17T00:13:39.842Z,39
2022-11-17T00:15:39.969Z,37
2022-11-17T00:17:40.078Z,39
2022-11-17T00:19:40.199Z,37
2022-11-17T00:21:40.303Z,36
2022-11-17T00:23:40.430Z,35
2022-11-17T00:25:40.548Z,33
2022-11-17T00:27:40.633Z,36
2022-11-17T00:29:40.817Z,34
2022-11-17T00:31:40.865Z,32
2022-11-17T00:33:40.973Z,33
2022-11-17T00:35:41.091Z,31
2022-11-17T00:37:41.202Z,31
2022-11-17T00:39:41.378Z,30
2022-11-17T00:41:41.419Z,30
2022-11-17T00:43:41.521Z,31
2022-11-17T00:47:41.748Z,30
2022-11-17T00:49:41.825Z,31
2022-11-17T00:51:41.924Z,30
2022-11-17T00:53:42.032Z,31
2022-11-17T00:55:42.253Z,30
2022-11-17T00:57:42.255Z,30
2022-11-17T00:59:42.357Z,31
2022-11-17T01:01:42.505Z,31
2022-11-17T01:03:42.562Z,33
2022-11-17T01:05:42.663Z,35
2022-11-17T01:09:42.930Z,30
2022-11-17T01:13:43.109Z,30
2022-11-17T01:15:43.209Z,29
2022-11-17T01:17:43.332Z,29
2022-11-17T01:19:43.445Z,28
2022-11-17T01:21:43.538Z,27
2022-11-17T01:23:43.649Z,28
2022-11-17T01:25:43.754Z,24
2022-11-17T01:27:43.849Z,25
2022-11-17T01:29:44.014Z,26
2022-11-17T01:31:44.069Z,29
2022-11-17T01:33:44.158Z,30
2022-11-17T01:35:44.268Z,31
2022-11-17T01:37:44.383Z,37
2022-11-17T01:39:44.492Z,34
2022-11-17T01:41:44.591Z,33
2022-11-17T01:43:44.685Z,31
2022-11-17T01:45:44.797Z,29
2022-11-17T01:47:44.910Z,31
2022-11-17T01:49:45.041Z,29
2022-11-17T01:51:45.091Z,27
2022-11-17T01:53:45.197Z,26
2022-11-17T01:55:45.295Z,24
2022-11-17T01:57:45.388Z,22
2022-11-17T01:59:45.477Z,18
2022-11-17T02:01:45.638Z,18
2022-11-17T02:03:45.678Z,19
2022-11-17T02:05:45.782Z,21
2022-11-17T02:07:45.853Z,20
2022-11-17T02:09:45.935Z,20
2022-11-17T02:11:46.042Z,18
2022-11-17T02:13:46.142Z,19
2022-11-17T02:15:46.251Z,18
2022-11-17T02:17:46.354Z,17
2022-11-17T02:21:46.539Z,16
2022-11-17T02:23:46.617Z,16
2022-11-17T02:25:46.691Z,15
2022-11-17T02:27:46.811Z,17
2022-11-17T02:29:46.862Z,18
2022-11-17T02:31:46.960Z,18
2022-11-17T02:33:47.048Z,15
2022-11-17T02:35:47.145Z,15
2022-11-17T02:37:47.238Z,17
2022-11-17T02:39:47.313Z,16
2022-11-17T02:41:47.411Z,14
2022-11-17T02:43:47.505Z,16
2022-11-17T02:45:47.603Z,17
2022-11-17T02:47:47.687Z,15
2022-11-17T02:49:47.768Z,16
2022-11-17T02:53:47.955Z,18
2022-11-17T02:55:48.050Z,17
2022-11-17T02:57:48.153Z,17
2022-11-17T02:59:48.248Z,13
2022-11-17T03:01:48.380Z,13
2022-11-17T03:03:48.435Z,13
2022-11-17T03:05:48.526Z,12
2022-11-17T03:07:48.613Z,13
2022-11-17T03:09:48.693Z,12
2022-11-17T03:11:48.781Z,13
2022-11-17T03:13:48.873Z,12
2022-11-17T03:15:48.957Z,12
2022-11-17T03:17:49.056Z,14
2022-11-17T03:19:49.135Z,12
2022-11-17T03:21:49.224Z,15
2022-11-17T03:23:49.327Z,14
2022-11-17T03:25:49.389Z,12
2022-11-17T03:27:49.492Z,12
2022-11-17T03:29:49.578Z,13
2022-11-17T03:31:49.662Z,13
2022-11-17T03:33:49.811Z,14
2022-11-17T03:35:50.980Z,17
2022-11-17T03:37:49.931Z,16
2022-11-17T03:39:50.028Z,17
2022-11-17T03:41:50.110Z,15
2022-11-17T03:43:50.208Z,15
2022-11-17T03:45:50.295Z,14
2022-11-17T03:47:50.384Z,16
2022-11-17T03:49:50.469Z,16
2022-11-17T03:52:20.608Z,14
2022-11-17T03:54:20.782Z,16
2022-11-17T03:56:20.841Z,14
2022-11-17T03:58:20.969Z,14
2022-11-17T04:00:21.074Z,15
2022-11-17T04:02:21.197Z,12
2022-11-17T04:04:21.302Z,13
2022-11-17T04:06:21.413Z,12
2022-11-17T04:08:21.517Z,14
2022-11-17T04:10:21.645Z,14
2022-11-17T04:12:21.727Z,12
2022-11-17T04:14:21.920Z,11
2022-11-17T04:16:21.954Z,13
2022-11-17T04:18:22.062Z,13
2022-11-17T04:20:22.156Z,11
2022-11-17T04:22:22.274Z,11
2022-11-17T04:24:22.373Z,11
2022-11-17T04:26:22.491Z,11
2022-11-17T04:28:22.602Z,10
2022-11-17T04:32:22.810Z,8
2022-11-17T04:34:22.954Z,9
2022-11-17T04:36:23.043Z,9
2022-11-17T04:38:23.158Z,8
2022-11-17T04:40:23.286Z,8
2022-11-17T04:42:23.391Z,10
2022-11-17T04:44:23.526Z,8
2022-11-17T04:46:23.599Z,7
2022-11-17T04:48:23.693Z,10
2022-11-17T04:50:23.815Z,8
2022-11-17T04:52:28.463Z,8
2022-11-17T04:54:24.028Z,9
2022-11-17T04:56:24.137Z,11
2022-11-17T04:58:24.249Z,11
2022-11-17T05:00:24.352Z,10
2022-11-17T05:02:24.514Z,10
2022-11-17T05:04:24.574Z,10
2022-11-17T05:06:24.668Z,10
2022-11-17T05:08:24.780Z,8
2022-11-17T05:10:24.880Z,5
2022-11-17T05:12:25.004Z,5
2022-11-17T05:14:25.103Z,7
2022-11-17T05:16:25.199Z,6
2022-11-17T05:18:25.306Z,7
2022-11-17T05:20:25.416Z,8
2022-11-17T05:22:25.517Z,10
2022-11-17T05:24:25.614Z,7
2022-11-17T05:26:25.724Z,5
2022-11-17T05:28:25.816Z,6
2022-11-17T05:30:25.908Z,8
2022-11-17T05:32:26.019Z,8
2022-11-17T05:34:26.139Z,8
2022-11-17T05:36:26.247Z,8
2022-11-17T05:38:26.384Z,8
2022-11-17T05:40:26.460Z,9
2022-11-17T05:42:26.557Z,9
2022-11-17T05:44:26.643Z,10
2022-11-17T05:46:26.824Z,14
2022-11-17T05:48:26.886Z,14
2022-11-17T05:50:26.958Z,13
2022-11-17T05:52:27.057Z,13
2022-11-17T05:54:27.168Z,9
2022-11-17T05:56:27.259Z,9
2022-11-17T05:58:27.365Z,7
2022-11-17T06:00:27.461Z,7
2022-11-17T06:02:27.588Z,7
2022-11-17T06:04:27.752Z,6
2022-11-17T06:06:27.772Z,6
2022-11-17T06:08:27.882Z,9
2022-11-17T06:10:27.986Z,8
2022-11-17T06:12:28.092Z,9
2022-11-17T06:14:28.190Z,8
2022-11-17T06:16:28.280Z,8
2022-11-17T06:18:28.368Z,17
2022-11-17T06:20:28.476Z,18
2022-11-17T06:22:28.575Z,21
2022-11-17T06:24:28.648Z,19
2022-11-17T06:26:28.768Z,18
2022-11-17T06:28:28.853Z,17
2022-11-17T06:30:28.959Z,14
2022-11-17T06:32:29.049Z,14
2022-11-17T06:34:29.148Z,16
2022-11-17T06:36:29.254Z,18
2022-11-17T06:38:29.348Z,7
2022-11-17T06:40:29.450Z,11
2022-11-17T06:42:29.543Z,12
2022-11-17T06:44:29.619Z,9
2022-11-17T06:46:29.731Z,10
2022-11-17T06:48:29.796Z,9
2022-11-17T06:50:29.896Z,5
2022-11-17T06:52:30.036Z,4
2022-11-17T06:54:30.105Z,5
2022-11-17T06:56:30.209Z,6
2022-11-17T06:58:30.311Z,10
2022-11-17T07:00:30.586Z,12
2022-11-17T07:02:30.487Z,16
2022-11-17T07:04:30.580Z,11
2022-11-17T07:06:30.660Z,10
2022-11-17T07:08:30.770Z,9
2022-11-17T07:10:30.859Z,7
2022-11-17T07:12:30.993Z,4
2022-11-17T07:14:31.039Z,4
2022-11-17T07:16:31.142Z,5
2022-11-17T07:18:31.232Z,7
2022-11-17T07:20:31.306Z,6
2022-11-17T07:22:31.398Z,6
2022-11-17T07:24:31.509Z,5
2022-11-17T07:26:31.592Z,8
2022-11-17T07:28:31.662Z,6
2022-11-17T07:30:31.763Z,9
2022-11-17T07:32:31.847Z,9
2022-11-17T07:34:31.918Z,16
2022-11-17T07:36:31.985Z,24
2022-11-17T07:38:32.097Z,38
2022-11-17T07:40:32.170Z,9
2022-11-17T07:42:32.245Z,8
2022-11-17T07:44:32.325Z,8
2022-11-17T07:46:32.400Z,14
2022-11-17T07:48:32.777Z,15
2022-11-17T07:50:32.597Z,16
2022-11-17T07:52:36.029Z,16
2022-11-17T07:55:02.830Z,14
2022-11-17T07:57:02.954Z,13
2022-11-17T07:59:03.078Z,12
2022-11-17T08:01:03.223Z,11
2022-11-17T08:03:03.308Z,13
2022-11-17T08:05:03.417Z,11
2022-11-17T08:07:03.594Z,11
2022-11-17T08:09:03.661Z,11
2022-11-17T08:11:03.788Z,16
2022-11-17T08:13:03.895Z,27
2022-11-17T08:15:03.964Z,30
2022-11-17T08:17:04.099Z,15
2022-11-17T08:19:04.186Z,29
2022-11-17T08:21:04.310Z,27
2022-11-17T08:23:04.427Z,23
2022-11-17T08:25:04.529Z,17
2022-11-17T08:27:04.651Z,18
2022-11-17T08:29:04.767Z,12
2022-11-17T08:31:04.901Z,9
2022-11-17T08:33:04.969Z,8
2022-11-17T08:35:05.079Z,9
2022-11-17T08:37:05.183Z,10
2022-11-17T08:39:05.296Z,10
2022-11-17T08:41:05.414Z,10
2022-11-17T08:43:05.504Z,12
2022-11-17T08:45:05.621Z,7
2022-11-17T08:47:05.742Z,8
2022-11-17T08:49:05.827Z,9
2022-11-17T08:51:05.907Z,9
2022-11-17T08:53:06.028Z,8
2022-11-17T08:55:06.172Z,6
2022-11-17T08:57:06.299Z,7
2022-11-17T08:59:06.324Z,8
2022-11-17T09:01:06.475Z,8
2022-11-17T09:03:06.562Z,8
2022-11-17T09:05:06.652Z,5
2022-11-17T09:07:06.860Z,5
2022-11-17T09:09:06.903Z,6
2022-11-17T09:11:06.990Z,7
2022-11-17T09:13:07.098Z,15
2022-11-17T09:15:07.248Z,14
2022-11-17T09:17:07.300Z,10
2022-11-17T09:19:07.404Z,19
2022-11-17T09:21:07.508Z,19
2022-11-17T09:23:07.596Z,12
2022-11-17T09:25:13.149Z,11
2022-11-17T09:27:07.791Z,17
2022-11-17T09:29:07.913Z,6
2022-11-17T09:31:08.043Z,6
2022-11-17T09:33:08.128Z,26
2022-11-17T09:35:08.231Z,25
2022-11-17T09:37:08.330Z,6
2022-11-17T09:39:08.434Z,7
2022-11-17T09:41:08.506Z,5
2022-11-17T09:43:08.619Z,4
2022-11-17T09:45:08.734Z,4
2022-11-17T09:47:08.813Z,5
2022-11-17T09:49:08.915Z,10
2022-11-17T09:51:09.000Z,8
2022-11-17T09:53:09.111Z,3
2022-11-17T09:55:09.192Z,4
2022-11-17T09:57:09.297Z,5
2022-11-17T09:59:09.380Z,7
2022-11-17T10:01:09.480Z,6
2022-11-17T10:03:09.588Z,4
2022-11-17T10:05:09.654Z,6
2022-11-17T10:07:09.830Z,5
2022-11-17T10:09:09.877Z,3
2022-11-17T10:11:09.974Z,6
2022-11-17T10:13:10.053Z,4
2022-11-17T10:15:10.141Z,6
2022-11-17T10:17:10.238Z,5
2022-11-17T10:19:10.336Z,6
2022-11-17T10:21:10.426Z,6
2022-11-17T10:23:10.534Z,5
2022-11-17T10:25:10.608Z,4
2022-11-17T10:27:10.704Z,4
2022-11-17T10:29:10.782Z,4
2022-11-17T10:31:10.889Z,5
2022-11-17T10:33:11.000Z,5
2022-11-17T10:35:11.063Z,5
2022-11-17T10:37:11.189Z,5
2022-11-17T10:39:17.468Z,6
2022-11-17T10:41:11.273Z,7
2022-11-17T10:43:11.372Z,5
2022-11-17T10:45:11.468Z,4
2022-11-17T10:47:11.553Z,4
2022-11-17T10:49:11.633Z,4
2022-11-17T10:51:11.703Z,5
2022-11-17T10:53:12.959Z,5
2022-11-17T10:55:11.862Z,5
2022-11-17T10:57:11.934Z,6
2022-11-17T10:59:12.028Z,5
2022-11-17T11:01:12.243Z,4
2022-11-17T11:03:12.206Z,4
2022-11-17T11:05:12.292Z,4
2022-11-17T11:07:42.419Z,5
2022-11-17T11:09:42.515Z,3
2022-11-17T11:11:42.616Z,4
2022-11-17T11:13:42.723Z,5
2022-11-17T11:15:42.868Z,6
2022-11-17T11:17:43.028Z,6
2022-11-17T11:19:43.075Z,6
2022-11-17T11:21:43.173Z,6
2022-11-17T11:23:43.300Z,6
2022-11-17T11:25:43.388Z,10
2022-11-17T11:29:43.633Z,7
2022-11-17T11:31:43.743Z,7
2022-11-17T11:33:43.969Z,4
2022-11-17T11:35:43.928Z,4
2022-11-17T11:37:44.028Z,3
2022-11-17T11:39:44.147Z,3
2022-11-17T11:41:44.237Z,4
2022-11-17T11:43:44.360Z,3
2022-11-17T11:45:44.459Z,8
2022-11-17T11:47:44.576Z,9
2022-11-17T11:49:44.773Z,4
2022-11-17T11:51:44.771Z,5
2022-11-17T11:53:44.890Z,4
2022-11-17T11:55:44.983Z,3
2022-11-17T11:57:45.103Z,3
2022-11-17T11:59:45.175Z,4
2022-11-17T12:01:45.252Z,4
2022-11-17T12:03:45.367Z,13
2022-11-17T12:05:45.466Z,9
2022-11-17T12:07:45.552Z,6
2022-11-17T12:09:45.659Z,2
2022-11-17T12:11:45.768Z,6
2022-11-17T12:13:51.217Z,5
2022-11-17T12:15:46.059Z,4
2022-11-17T12:17:46.058Z,4
2022-11-17T12:19:46.209Z,3
2022-11-17T12:21:46.343Z,4
2022-11-17T12:23:46.354Z,5
2022-11-17T12:27:46.547Z,11
2022-11-17T12:29:46.626Z,6
2022-11-17T12:31:46.766Z,5
2022-11-17T12:33:46.842Z,6
2022-11-17T12:35:46.903Z,8
2022-11-17T12:37:46.992Z,7
2022-11-17T12:39:47.161Z,8
2022-11-17T12:41:47.178Z,4
2022-11-17T12:43:47.277Z,6
2022-11-17T12:45:47.362Z,7
2022-11-17T12:47:59.460Z,6
2022-11-17T12:49:47.503Z,4
2022-11-17T12:51:47.608Z,5
2022-11-17T12:53:47.710Z,4
2022-11-17T12:55:47.786Z,8
2022-11-17T12:57:47.877Z,6
2022-11-17T12:59:48.141Z,5
2022-11-17T13:01:48.240Z,6
2022-11-17T13:03:48.135Z,15
2022-11-17T13:05:57.331Z,12
2022-11-17T13:07:48.314Z,14
2022-11-17T13:09:48.419Z,9
2022-11-17T13:11:48.500Z,10
2022-11-17T13:13:48.611Z,10
2022-11-17T13:15:48.699Z,5
2022-11-17T13:17:48.800Z,11
2022-11-17T13:19:48.869Z,5
2022-11-17T13:23:49.057Z,7
2022-11-17T13:25:49.158Z,7
2022-11-17T13:27:54.937Z,6
2022-11-17T13:29:49.317Z,6
2022-11-17T13:31:49.394Z,5
2022-11-17T13:33:49.502Z,6
2022-11-17T13:35:49.599Z,6
2022-11-17T13:37:49.667Z,4
2022-11-17T13:39:49.733Z,6
2022-11-17T13:41:49.887Z,6
2022-11-17T13:43:49.905Z,7
2022-11-17T13:45:50.000Z,7
2022-11-17T13:47:50.088Z,7
2022-11-17T13:52:20.433Z,6
2022-11-17T13:54:20.433Z,14
2022-11-17T13:56:20.572Z,13
2022-11-17T13:58:25.896Z,9
2022-11-17T14:00:20.803Z,13
2022-11-17T14:02:20.913Z,21
2022-11-17T14:04:21.676Z,23
2022-11-17T14:06:21.128Z,18
2022-11-17T14:08:21.294Z,15
2022-11-17T14:10:21.334Z,12
2022-11-17T14:12:21.431Z,22
2022-11-17T14:14:21.545Z,31
2022-11-17T14:16:21.647Z,27
2022-11-17T14:18:21.873Z,27
2022-11-17T14:20:21.875Z,21
2022-11-17T14:22:29.245Z,19
2022-11-17T14:24:22.119Z,19
2022-11-17T14:26:22.203Z,15
2022-11-17T14:28:22.326Z,17
2022-11-17T14:30:22.447Z,17
2022-11-17T14:32:22.549Z,17
2022-11-17T14:34:22.647Z,22
2022-11-17T14:36:22.769Z,20
2022-11-17T14:38:22.865Z,16
2022-11-17T14:40:22.961Z,17
2022-11-17T14:42:23.086Z,16
2022-11-17T14:44:23.225Z,15
2022-11-17T14:46:23.294Z,15
2022-11-17T14:48:23.460Z,16
2022-11-17T14:50:23.502Z,16
2022-11-17T14:52:23.612Z,16
2022-11-17T14:54:23.701Z,20
2022-11-17T14:56:23.804Z,22
2022-11-17T14:58:23.919Z,17
2022-11-17T15:00:24.012Z,21
2022-11-17T15:02:24.147Z,19
2022-11-17T15:04:48.988Z,32
2022-11-17T15:06:24.448Z,27
2022-11-17T15:08:24.456Z,26
2022-11-17T15:10:24.511Z,56
2022-11-17T15:12:24.628Z,71
2022-11-17T15:14:24.711Z,39
2022-11-17T15:16:24.811Z,65
2022-11-17T15:18:24.892Z,54
2022-11-17T15:20:24.969Z,49
2022-11-17T15:22:25.031Z,44
2022-11-17T15:24:25.150Z,48
2022-11-17T15:26:25.255Z,46
2022-11-17T15:28:29.061Z,53
2022-11-17T15:30:25.468Z,54
2022-11-17T15:32:25.551Z,51
2022-11-17T15:34:25.653Z,47
2022-11-17T15:36:25.794Z,51
2022-11-17T15:38:25.869Z,67
2022-11-17T15:40:25.959Z,66
2022-11-17T15:42:26.075Z,84
2022-11-17T15:44:26.167Z,84
2022-11-17T15:46:26.256Z,75
2022-11-17T15:48:26.345Z,110
2022-11-17T15:50:26.454Z,88
2022-11-17T15:52:48.514Z,46
2022-11-17T15:54:26.644Z,37
2022-11-17T15:56:26.734Z,30
2022-11-17T15:58:26.843Z,21
2022-11-17T16:00:26.923Z,14
2022-11-17T16:02:27.028Z,17
2022-11-17T16:04:27.124Z,21
2022-11-17T16:06:27.181Z,20
2022-11-17T16:08:27.311Z,30
2022-11-17T16:10:27.475Z,24
2022-11-17T16:12:27.539Z,29
2022-11-17T16:14:27.570Z,30
2022-11-17T16:16:27.664Z,20
2022-11-17T16:18:27.741Z,34
2022-11-17T16:20:27.864Z,43
2022-11-17T16:22:27.912Z,111
2022-11-17T16:24:28.020Z,56
2022-11-17T16:26:28.114Z,35
2022-11-17T16:28:28.192Z,26
2022-11-17T16:30:32.728Z,33
2022-11-17T16:32:28.373Z,39
2022-11-17T16:34:28.520Z,33
2022-11-17T16:36:34.324Z,48
2022-11-17T16:38:28.615Z,104
2022-11-17T16:40:28.688Z,76
2022-11-17T16:42:28.736Z,36
2022-11-17T16:44:28.902Z,31
2022-11-17T16:46:28.926Z,29
2022-11-17T16:48:29.003Z,31
2022-11-17T16:50:29.116Z,33
2022-11-17T16:52:29.181Z,36
2022-11-17T16:54:29.278Z,51
2022-11-17T16:56:29.359Z,53
2022-11-17T16:58:29.448Z,42
2022-11-17T17:00:29.533Z,41
2022-11-17T17:02:59.777Z,138
2022-11-17T17:04:59.808Z,100
2022-11-17T17:06:59.961Z,72
2022-11-17T17:09:00.054Z,54
2022-11-17T17:11:00.141Z,40
2022-11-17T17:13:00.277Z,45
2022-11-17T17:15:00.417Z,24
2022-11-17T17:17:00.522Z,28
2022-11-17T17:19:00.614Z,26
2022-11-17T17:21:00.734Z,34
2022-11-17T17:23:03.178Z,32
2022-11-17T17:25:00.953Z,28
2022-11-17T17:27:01.069Z,26
2022-11-17T17:29:01.197Z,30
2022-11-17T17:31:01.303Z,28
2022-11-17T17:33:01.438Z,29
2022-11-17T17:35:01.582Z,31
2022-11-17T17:37:01.638Z,33
2022-11-17T17:39:02.020Z,29
2022-11-17T17:41:01.855Z,27
2022-11-17T17:43:01.958Z,25
2022-11-17T17:45:02.102Z,27
2022-11-17T17:47:02.163Z,22
2022-11-17T17:49:02.288Z,19
2022-11-17T17:51:02.399Z,15
2022-11-17T17:53:02.525Z,18
2022-11-17T17:55:02.688Z,17
2022-11-17T17:57:02.707Z,23
2022-11-17T17:59:02.821Z,23
2022-11-17T18:01:02.915Z,32
2022-11-17T18:03:03.097Z,31
2022-11-17T18:05:03.125Z,40
2022-11-17T18:07:03.352Z,40
2022-11-17T18:09:03.357Z,30
2022-11-17T18:11:03.439Z,52
2022-11-17T18:13:07.792Z,52
2022-11-17T18:15:03.660Z,43
2022-11-17T18:17:03.766Z,44
2022-11-17T18:19:03.859Z,88
2022-11-17T18:21:03.987Z,41
2022-11-17T18:23:04.096Z,26
2022-11-17T18:25:07.709Z,21
2022-11-17T18:27:04.291Z,23
2022-11-17T18:29:04.407Z,24
2022-11-17T18:31:04.513Z,22
2022-11-17T18:33:04.592Z,15
2022-11-17T18:35:04.717Z,16
2022-11-17T18:37:04.816Z,17
2022-11-17T18:39:04.917Z,14
2022-11-17T18:41:05.032Z,15
2022-11-17T18:43:05.127Z,25
2022-11-17T18:45:05.236Z,22
2022-11-17T18:47:05.328Z,23
2022-11-17T18:49:05.450Z,14
2022-11-17T18:51:19.256Z,17
2022-11-17T18:53:05.613Z,17
2022-11-17T18:55:05.705Z,14
2022-11-17T18:57:05.817Z,15
2022-11-17T18:59:05.934Z,15
2022-11-17T19:01:06.070Z,17
2022-11-17T19:03:06.120Z,18
2022-11-17T19:05:06.230Z,44
2022-11-17T19:07:06.403Z,48
2022-11-17T19:09:06.441Z,52
2022-11-17T19:11:06.673Z,50
2022-11-17T19:13:06.654Z,42
2022-11-17T19:15:06.734Z,46
2022-11-17T19:17:06.874Z,26
2022-11-17T19:19:06.919Z,27
2022-11-17T19:21:07.022Z,34
2022-11-17T19:23:07.126Z,29
2022-11-17T19:25:07.219Z,24
2022-11-17T19:27:07.345Z,20
2022-11-17T19:29:12.646Z,21
2022-11-17T19:31:07.517Z,35
2022-11-17T19:33:07.636Z,66
2022-11-17T19:35:15.678Z,44
2022-11-17T19:37:07.814Z,33
2022-11-17T19:39:07.915Z,53
2022-11-17T19:41:07.996Z,102
2022-11-17T19:43:08.106Z,85
2022-11-17T19:45:08.186Z,51
2022-11-17T19:47:08.282Z,46
2022-11-17T19:49:08.396Z,22
2022-11-17T19:51:08.496Z,107
2022-11-17T19:53:08.588Z,65
2022-11-17T19:55:08.671Z,28
2022-11-17T19:57:08.764Z,14
2022-11-17T19:59:15.192Z,14
2022-11-17T20:01:09.023Z,12
2022-11-17T20:03:09.020Z,22
2022-11-17T20:05:10.948Z,79
2022-11-17T20:07:09.243Z,106
2022-11-17T20:09:09.305Z,32
2022-11-17T20:11:09.404Z,62
2022-11-17T20:13:09.483Z,88
2022-11-17T20:15:27.071Z,63
2022-11-17T20:17:09.676Z,62
2022-11-17T20:19:09.805Z,56
2022-11-17T20:21:09.865Z,50
2022-11-17T20:23:09.941Z,51
2022-11-17T20:25:10.033Z,46
2022-11-17T20:27:10.119Z,32
2022-11-17T20:29:10.195Z,41
2022-11-17T20:31:10.314Z,33
2022-11-17T20:33:10.388Z,46
2022-11-17T20:35:10.487Z,44
2022-11-17T20:37:10.599Z,46
2022-11-17T20:39:10.700Z,40
2022-11-17T20:41:10.757Z,37
2022-11-17T20:43:10.856Z,39
2022-11-17T20:45:10.943Z,32
2022-11-17T20:47:11.031Z,27
2022-11-17T20:49:11.117Z,24
2022-11-17T20:51:11.215Z,23
2022-11-17T20:53:11.295Z,22
2022-11-17T20:55:11.378Z,25
2022-11-17T20:57:11.472Z,26
2022-11-17T20:59:16.862Z,30
2022-11-17T21:01:11.661Z,35
2022-11-17T21:03:11.696Z,28
2022-11-17T21:05:11.806Z,26
2022-11-17T21:07:11.934Z,27
2022-11-17T21:09:42.024Z,23
2022-11-17T21:11:42.148Z,31
2022-11-17T21:13:42.268Z,29
2022-11-17T21:15:42.401Z,27
2022-11-17T21:17:42.648Z,36
2022-11-17T21:19:42.606Z,30
2022-11-17T21:21:42.729Z,40
2022-11-17T21:23:42.853Z,39
2022-11-17T21:25:42.935Z,29
2022-11-17T21:27:43.055Z,41
2022-11-17T21:29:43.170Z,48
2022-11-17T21:31:43.282Z,48
2022-11-17T21:33:43.376Z,39
2022-11-17T21:35:43.498Z,33
2022-11-17T21:37:43.591Z,29
2022-11-17T21:39:43.694Z,30
2022-11-17T21:41:43.803Z,25
2022-11-17T21:43:43.931Z,22
2022-11-17T21:45:44.040Z,23
2022-11-17T21:47:44.132Z,24
2022-11-17T21:49:44.257Z,25
2022-11-17T21:51:44.368Z,24
2022-11-17T21:53:44.482Z,22
2022-11-17T21:55:44.587Z,20
2022-11-17T21:57:44.716Z,22
2022-11-17T21:59:44.827Z,20
2022-11-17T22:01:44.918Z,28
2022-11-17T22:03:45.045Z,27
2022-11-17T22:05:45.141Z,28
2022-11-17T22:07:45.229Z,25
2022-11-17T22:09:45.351Z,22
2022-11-17T22:11:45.467Z,29
2022-11-17T22:13:45.584Z,31
2022-11-17T22:15:45.683Z,32
2022-11-17T22:17:45.778Z,36
2022-11-17T22:19:46.072Z,37
2022-11-17T22:21:46.029Z,37
2022-11-17T22:23:46.092Z,31
2022-11-17T22:25:46.243Z,33
2022-11-17T22:27:46.308Z,36
2022-11-17T22:29:46.404Z,34
2022-11-17T22:31:46.510Z,31
2022-11-17T22:33:46.615Z,31
2022-11-17T22:35:46.721Z,25
2022-11-17T22:37:46.814Z,24
2022-11-17T22:39:46.920Z,22
2022-11-17T22:41:47.044Z,22
2022-11-17T22:43:47.135Z,23
2022-11-17T22:45:47.232Z,23
2022-11-17T22:47:47.382Z,22
2022-11-17T22:49:47.455Z,21
2022-11-17T22:51:47.566Z,21
2022-11-17T22:53:47.681Z,22
2022-11-17T22:55:47.772Z,22
2022-11-17T22:57:47.897Z,23
2022-11-17T22:59:48.005Z,24
2022-11-17T23:01:48.134Z,24
2022-11-17T23:03:48.260Z,27
2022-11-17T23:05:48.311Z,33
2022-11-17T23:07:48.438Z,25
2022-11-17T23:09:48.535Z,28
2022-11-17T23:11:48.633Z,26
2022-11-17T23:13:48.749Z,28
2022-11-17T23:15:48.861Z,30
2022-11-17T23:17:48.942Z,33
2022-11-17T23:19:49.054Z,33
2022-11-17T23:21:49.110Z,35
2022-11-17T23:23:49.283Z,54
2022-11-17T23:25:49.328Z,78
2022-11-17T23:27:49.428Z,88
2022-11-17T23:29:49.546Z,96
2022-11-17T23:31:49.643Z,102
2022-11-17T23:33:49.729Z,95
2022-11-17T23:35:49.809Z,93
2022-11-17T23:37:49.921Z,85
2022-11-17T23:39:50.030Z,65
2022-11-17T23:41:50.138Z,51
2022-11-17T23:43:50.250Z,37
2022-11-17T23:45:50.361Z,28
2022-11-17T23:47:50.442Z,27
2022-11-17T23:49:50.564Z,23
2022-11-17T23:51:50.635Z,20
2022-11-17T23:53:50.735Z,17
2022-11-17T23:55:50.805Z,16
2022-11-17T23:57:50.890Z,15
2022-11-17T23:59:50.996Z,16
